Time;durP1;ratioP1;P1;durP2;ratioP2;P2;SDS_P1;SDS_P2;PMS_P1;PMS_P2;Temp;Humidity;BMP_temperature;BMP_pressure;BME280_temperature;BME280_humidity;BME280_pressure;Samples;Min_cycle;Max_cycle;Signal;HPM_P1;HPM_P2
2021/08/01 00:01:26;;;;;;;38.27;36.10;;;17.60;99.90;;;;;;5011175;28;20539;-70
2021/08/01 00:03:53;;;;;;;40.83;38.23;;;17.50;99.90;;;;;;5010924;28;20945;-69
2021/08/01 00:06:20;;;;;;;40.53;37.83;;;17.50;99.90;;;;;;5010972;28;20472;-70
2021/08/01 00:08:47;;;;;;;40.30;37.80;;;17.50;99.90;;;;;;5010714;28;20461;-70
2021/08/01 00:11:14;;;;;;;42.67;39.87;;;17.40;99.90;;;;;;5012186;28;20610;-71
2021/08/01 00:13:40;;;;;;;39.20;36.87;;;17.30;99.90;;;;;;5011523;28;20834;-70
2021/08/01 00:16:07;;;;;;;41.47;38.83;;;17.20;99.90;;;;;;5010916;28;20464;-71
2021/08/01 00:18:35;;;;;;;43.13;40.67;;;17.10;99.90;;;;;;5010897;28;20477;-71
2021/08/01 00:21:03;;;;;;;42.20;39.70;;;17.10;99.90;;;;;;5010743;28;20489;-72
2021/08/01 00:23:29;;;;;;;41.50;39.00;;;17.00;99.90;;;;;;5010716;28;20952;-72
2021/08/01 00:25:57;;;;;;;40.60;38.30;;;17.00;99.90;;;;;;5010863;28;20872;-72
2021/08/01 00:28:23;;;;;;;40.33;37.93;;;17.00;99.90;;;;;;5010431;28;20501;-70
2021/08/01 00:30:50;;;;;;;40.03;37.73;;;17.00;99.90;;;;;;5010666;28;20458;-71
2021/08/01 00:33:17;;;;;;;40.93;38.73;;;17.00;99.90;;;;;;5010584;28;20500;-71
2021/08/01 00:35:45;;;;;;;42.53;39.67;;;17.00;99.90;;;;;;5013617;28;20449;-71
2021/08/01 00:38:12;;;;;;;41.30;38.90;;;17.00;99.90;;;;;;5014147;28;20942;-72
2021/08/01 00:40:38;;;;;;;41.60;39.20;;;17.00;99.90;;;;;;5014493;28;20465;-72
2021/08/01 00:43:05;;;;;;;42.23;39.83;;;17.00;99.90;;;;;;5014566;28;20484;-72
2021/08/01 00:45:32;;;;;;;40.93;38.63;;;17.00;99.90;;;;;;5014326;28;20446;-72
2021/08/01 00:47:59;;;;;;;41.47;39.17;;;16.70;99.90;;;;;;5014328;28;21028;-72
2021/08/01 00:50:26;;;;;;;41.83;39.53;;;16.60;99.90;;;;;;5014489;28;20446;-73
2021/08/01 00:52:54;;;;;;;42.00;39.50;;;16.70;99.90;;;;;;5014392;28;20496;-72
2021/08/01 00:55:21;;;;;;;42.40;40.00;;;16.60;99.90;;;;;;5014070;28;20454;-72
2021/08/01 00:57:47;;;;;;;41.73;39.23;;;16.50;99.90;;;;;;5014358;28;20449;-73
2021/08/01 01:00:24;;;;;;;42.40;40.00;;;16.50;99.90;;;;;;5014149;28;20449;-73
2021/08/01 01:02:53;;;;;;;42.60;39.90;;;16.40;99.90;;;;;;5014504;28;20548;-73
2021/08/01 01:05:26;;;;;;;42.33;39.80;;;16.40;99.90;;;;;;5013850;28;20942;-71
2021/08/01 01:08:04;;;;;;;42.17;39.57;;;16.40;99.90;;;;;;5014250;28;20450;-71
2021/08/01 01:10:37;;;;;;;41.37;38.67;;;16.40;99.90;;;;;;5014456;28;20527;-72
2021/08/01 01:13:11;;;;;;;41.87;39.20;;;16.40;99.90;;;;;;5013883;28;20555;-71
2021/08/01 01:15:43;;;;;;;42.03;39.43;;;16.50;99.90;;;;;;5013888;28;20488;-72
2021/08/01 01:18:14;;;;;;;42.40;39.80;;;16.40;99.90;;;;;;5014021;28;20477;-73
2021/08/01 01:21:02;;;;;;;41.37;38.97;;;16.40;99.90;;;;;;5013882;28;20489;-73
2021/08/01 01:23:39;;;;;;;43.30;40.60;;;16.40;99.90;;;;;;5013547;28;20453;-73
2021/08/01 01:26:10;;;;;;;42.77;40.03;;;16.50;99.90;;;;;;5014040;28;20453;-72
2021/08/01 01:28:41;;;;;;;42.73;39.87;;;16.40;99.90;;;;;;5013944;28;20464;-73
2021/08/01 01:31:19;;;;;;;44.87;41.80;;;16.50;99.90;;;;;;5013808;28;20457;-72
2021/08/01 01:33:58;;;;;;;45.93;42.70;;;16.50;99.90;;;;;;5013388;28;20494;-72
2021/08/01 01:36:28;;;;;;;42.20;39.50;;;16.40;99.90;;;;;;5013623;28;20449;-73
2021/08/01 01:38:56;;;;;;;41.53;38.97;;;16.50;99.90;;;;;;5013275;28;20476;-73
2021/08/01 01:41:24;;;;;;;42.33;40.10;;;16.50;99.90;;;;;;5013452;28;20958;-72
2021/08/01 01:43:53;;;;;;;42.70;40.40;;;16.50;99.90;;;;;;5013326;28;20449;-72
2021/08/01 01:46:20;;;;;;;42.13;39.83;;;16.40;99.90;;;;;;5012610;28;20460;-73
2021/08/01 01:48:48;;;;;;;41.83;39.43;;;16.40;99.90;;;;;;5013189;28;20457;-73
2021/08/01 01:51:15;;;;;;;43.20;40.80;;;16.30;99.90;;;;;;5012971;28;20457;-72
2021/08/01 01:53:43;;;;;;;41.93;39.30;;;16.30;99.90;;;;;;5012989;28;20528;-73
2021/08/01 01:56:11;;;;;;;41.20;38.90;;;16.20;99.90;;;;;;5013120;28;20512;-72
2021/08/01 01:58:39;;;;;;;40.83;38.57;;;16.20;99.90;;;;;;5013509;28;20495;-71
2021/08/01 02:01:06;;;;;;;39.50;37.30;;;16.20;99.90;;;;;;5013097;28;21020;-73
2021/08/01 02:03:33;;;;;;;39.77;37.67;;;16.20;99.90;;;;;;5012722;28;20465;-73
2021/08/01 02:05:59;;;;;;;41.67;39.13;;;16.20;99.90;;;;;;5013098;28;20453;-73
2021/08/01 02:08:29;;;;;;;41.20;38.80;;;16.20;99.90;;;;;;5013121;28;20457;-73
2021/08/01 02:10:59;;;;;;;41.47;39.17;;;16.20;99.90;;;;;;5013063;28;20454;-73
2021/08/01 02:13:35;;;;;;;41.40;39.20;;;16.20;99.90;;;;;;5012766;28;20486;-73
2021/08/01 02:16:03;;;;;;;40.60;38.27;;;16.30;99.90;;;;;;5012577;28;20445;-73
2021/08/01 02:18:32;;;;;;;40.70;38.50;;;16.30;99.90;;;;;;5012618;28;20450;-72
2021/08/01 02:21:01;;;;;;;39.93;37.40;;;16.30;99.90;;;;;;5012390;28;20490;-73
2021/08/01 02:23:31;;;;;;;38.83;36.63;;;16.30;99.90;;;;;;5012692;28;20501;-73
2021/08/01 02:26:00;;;;;;;39.90;37.57;;;16.40;99.90;;;;;;5012896;28;20839;-73
2021/08/01 02:28:30;;;;;;;39.37;37.47;;;16.40;99.90;;;;;;5012394;28;20450;-73
2021/08/01 02:30:57;;;;;;;39.87;37.80;;;16.40;99.90;;;;;;5012473;28;20969;-73
2021/08/01 02:33:27;;;;;;;41.20;39.00;;;16.30;99.90;;;;;;5012462;28;20891;-72
2021/08/01 02:35:56;;;;;;;39.80;37.70;;;16.40;99.90;;;;;;5012596;28;20504;-72
2021/08/01 02:38:25;;;;;;;41.60;38.47;;;16.40;99.90;;;;;;5012214;28;20481;-72
2021/08/01 02:40:54;;;;;;;40.17;37.87;;;16.40;99.90;;;;;;5012368;28;20473;-72
2021/08/01 02:43:25;;;;;;;41.60;39.40;;;16.50;99.90;;;;;;5012428;28;20449;-72
2021/08/01 02:45:53;;;;;;;41.80;39.10;;;16.50;99.90;;;;;;5012267;28;20519;-72
2021/08/01 02:48:23;;;;;;;40.50;38.10;;;16.50;99.90;;;;;;5012332;28;20512;-71
2021/08/01 02:50:57;;;;;;;38.53;36.53;;;16.40;99.90;;;;;;5012115;28;20977;-71
2021/08/01 02:53:26;;;;;;;39.77;37.43;;;16.30;99.90;;;;;;5012337;28;20469;-71
2021/08/01 02:55:55;;;;;;;39.73;37.30;;;16.30;99.90;;;;;;5012237;28;20457;-73
2021/08/01 02:58:23;;;;;;;39.67;37.60;;;16.30;99.90;;;;;;5011151;28;20457;-72
2021/08/01 03:00:50;;;;;;;40.70;38.30;;;16.20;99.90;;;;;;5011935;28;20453;-72
2021/08/01 03:03:19;;;;;;;39.20;37.10;;;16.20;99.90;;;;;;5012012;28;20446;-72
2021/08/01 03:05:47;;;;;;;40.07;37.47;;;16.20;99.90;;;;;;5011861;28;20961;-72
2021/08/01 03:08:14;;;;;;;41.20;38.47;;;16.20;99.90;;;;;;5011777;28;20461;-72
2021/08/01 03:10:43;;;;;;;41.10;38.70;;;16.20;99.90;;;;;;5011835;28;20450;-72
2021/08/01 03:13:10;;;;;;;40.37;38.07;;;16.20;99.90;;;;;;5011449;28;20513;-72
2021/08/01 03:15:38;;;;;;;39.33;37.33;;;16.10;99.90;;;;;;5012063;28;20457;-72
2021/08/01 03:18:05;;;;;;;40.27;37.67;;;16.20;99.90;;;;;;5011799;28;20464;-72
2021/08/01 03:20:32;;;;;;;41.10;38.60;;;16.10;99.90;;;;;;5011339;28;20473;-72
2021/08/01 03:22:59;;;;;;;40.77;38.50;;;16.10;99.90;;;;;;5011424;28;20453;-72
2021/08/01 03:25:26;;;;;;;41.83;38.73;;;16.10;99.90;;;;;;5011814;28;20450;-72
2021/08/01 03:27:52;;;;;;;40.70;38.20;;;16.10;99.90;;;;;;5011712;28;20468;-72
2021/08/01 03:30:19;;;;;;;39.83;37.13;;;16.10;99.90;;;;;;5011523;28;20863;-70
2021/08/01 03:32:47;;;;;;;41.00;38.50;;;16.10;99.90;;;;;;5011425;28;20453;-73
2021/08/01 03:35:14;;;;;;;39.80;37.60;;;16.10;99.90;;;;;;5011067;28;20961;-73
2021/08/01 03:37:40;;;;;;;40.13;38.00;;;16.10;99.90;;;;;;5011406;28;20453;-73
2021/08/01 03:40:08;;;;;;;39.80;37.47;;;16.10;99.90;;;;;;5011510;28;20937;-73
2021/08/01 03:42:35;;;;;;;41.20;38.80;;;16.10;99.90;;;;;;5011648;28;20454;-72
2021/08/01 03:45:02;;;;;;;40.40;38.10;;;16.10;99.90;;;;;;5011290;28;20454;-73
2021/08/01 03:47:28;;;;;;;39.10;36.93;;;16.10;99.90;;;;;;5011276;28;20461;-73
2021/08/01 03:49:56;;;;;;;38.60;36.23;;;16.00;99.90;;;;;;5011249;28;20524;-72
2021/08/01 03:52:23;;;;;;;40.00;37.83;;;16.00;99.90;;;;;;5011302;28;20828;-73
2021/08/01 03:54:51;;;;;;;40.60;38.40;;;16.10;99.90;;;;;;5011010;28;20572;-72
2021/08/01 03:57:18;;;;;;;39.23;37.03;;;16.10;99.90;;;;;;5011114;28;20450;-71
2021/08/01 03:59:45;;;;;;;40.43;37.93;;;16.10;99.90;;;;;;5011127;28;20898;-72
2021/08/01 04:02:12;;;;;;;41.63;39.13;;;16.00;99.90;;;;;;5011459;28;20450;-72
2021/08/01 04:04:39;;;;;;;42.03;39.33;;;16.00;99.90;;;;;;5011275;28;20446;-72
2021/08/01 04:07:07;;;;;;;38.77;36.60;;;16.00;99.90;;;;;;5011330;28;20460;-72
2021/08/01 04:09:34;;;;;;;38.77;36.67;;;16.00;99.90;;;;;;5012801;28;20473;-70
2021/08/01 04:12:01;;;;;;;39.73;37.40;;;16.00;99.90;;;;;;5014943;28;20457;-71
2021/08/01 04:14:31;;;;;;;38.63;36.53;;;16.00;99.90;;;;;;5015004;28;20490;-74
2021/08/01 04:16:58;;;;;;;40.10;37.97;;;16.00;99.90;;;;;;5014978;28;20581;-71
2021/08/01 04:19:25;;;;;;;40.07;37.47;;;16.00;99.90;;;;;;5014927;28;20473;-71
2021/08/01 04:21:52;;;;;;;40.40;38.20;;;16.00;99.90;;;;;;5014810;28;20473;-72
2021/08/01 04:24:20;;;;;;;40.30;38.00;;;16.00;99.90;;;;;;5014763;28;20465;-72
2021/08/01 04:26:47;;;;;;;40.03;37.27;;;16.00;99.90;;;;;;5014598;28;20449;-72
2021/08/01 04:29:14;;;;;;;39.90;37.80;;;16.00;99.90;;;;;;5014852;28;20466;-72
2021/08/01 04:31:40;;;;;;;39.30;37.20;;;16.00;99.90;;;;;;5014700;28;20450;-72
2021/08/01 04:34:07;;;;;;;40.00;37.80;;;16.00;99.90;;;;;;5014663;28;20481;-72
2021/08/01 04:36:34;;;;;;;41.90;39.50;;;16.00;99.90;;;;;;5014805;28;20450;-72
2021/08/01 04:39:00;;;;;;;40.50;38.30;;;16.00;99.90;;;;;;5014609;28;20449;-72
2021/08/01 04:41:28;;;;;;;39.77;37.47;;;15.90;99.90;;;;;;5014570;28;20837;-73
2021/08/01 04:43:55;;;;;;;41.30;38.80;;;15.90;99.90;;;;;;5014476;28;20453;-69
2021/08/01 04:46:22;;;;;;;40.77;38.70;;;15.90;99.90;;;;;;5014361;28;20469;-70
2021/08/01 04:48:48;;;;;;;41.00;38.80;;;15.90;99.90;;;;;;5014198;28;20553;-71
2021/08/01 04:51:15;;;;;;;38.00;35.90;;;16.00;99.90;;;;;;5013969;28;20449;-70
2021/08/01 04:53:42;;;;;;;40.67;38.13;;;16.00;99.90;;;;;;5014138;28;20512;-71
2021/08/01 04:56:09;;;;;;;39.50;37.30;;;16.00;99.90;;;;;;5014306;28;20454;-72
2021/08/01 04:58:37;;;;;;;39.83;37.47;;;16.00;99.90;;;;;;5014241;28;20458;-72
2021/08/01 05:01:10;;;;;;;40.80;38.20;;;16.00;99.90;;;;;;5014312;28;20454;-71
2021/08/01 05:03:37;;;;;;;40.63;38.33;;;15.90;99.90;;;;;;5014147;28;21299;-72
2021/08/01 05:06:04;;;;;;;39.80;37.70;;;15.90;99.90;;;;;;5013886;28;20469;-72
2021/08/01 05:08:30;;;;;;;38.90;36.80;;;15.90;99.90;;;;;;5014037;28;20445;-71
2021/08/01 05:10:58;;;;;;;38.77;36.57;;;16.00;99.90;;;;;;5014078;28;20462;-72
2021/08/01 05:13:24;;;;;;;40.67;38.37;;;16.00;99.90;;;;;;5014093;28;20539;-70
2021/08/01 05:15:52;;;;;;;40.10;37.90;;;15.90;99.90;;;;;;5014127;28;20462;-71
2021/08/01 05:18:20;;;;;;;40.30;38.10;;;15.80;99.90;;;;;;5013682;28;20458;-71
2021/08/01 05:20:47;;;;;;;39.80;37.60;;;15.80;99.90;;;;;;5012332;28;20539;-72
2021/08/01 05:23:14;;;;;;;39.27;36.67;;;15.90;99.90;;;;;;5013747;28;20446;-74
2021/08/01 05:25:41;;;;;;;40.43;38.13;;;16.00;99.90;;;;;;5013753;28;20449;-72
2021/08/01 05:28:08;;;;;;;40.57;38.47;;;16.00;99.90;;;;;;5013900;28;20461;-72
2021/08/01 05:30:35;;;;;;;39.50;37.40;;;16.00;99.90;;;;;;5013767;28;20453;-73
2021/08/01 05:33:06;;;;;;;38.43;36.10;;;16.10;99.90;;;;;;5013533;28;20453;-72
2021/08/01 05:35:33;;;;;;;39.97;37.87;;;16.20;99.90;;;;;;5013545;28;20897;-73
2021/08/01 05:38:00;;;;;;;40.23;38.00;;;16.30;99.90;;;;;;5013626;28;20445;-73
2021/08/01 05:40:27;;;;;;;39.00;36.90;;;16.30;99.90;;;;;;5013311;28;20496;-73
2021/08/01 05:42:54;;;;;;;39.73;37.53;;;16.50;99.90;;;;;;5013651;28;20453;-71
2021/08/01 05:45:20;;;;;;;39.13;37.13;;;16.50;99.90;;;;;;5013513;28;20449;-72
2021/08/01 05:47:47;;;;;;;39.57;37.47;;;16.50;99.90;;;;;;5013433;28;20489;-72
2021/08/01 05:50:15;;;;;;;40.50;38.30;;;16.50;99.90;;;;;;5013279;28;20504;-72
2021/08/01 05:52:42;;;;;;;40.43;38.03;;;16.40;99.90;;;;;;5013075;28;20517;-72
2021/08/01 05:55:09;;;;;;;38.13;35.93;;;16.40;99.90;;;;;;5013619;28;20486;-71
2021/08/01 05:57:36;;;;;;;39.27;36.90;;;16.30;99.90;;;;;;5013214;28;20461;-72
2021/08/01 06:00:04;;;;;;;37.87;35.73;;;16.30;99.90;;;;;;5013098;28;20465;-72
2021/08/01 06:02:30;;;;;;;37.90;35.60;;;16.30;99.90;;;;;;5013021;28;20453;-72
2021/08/01 06:04:57;;;;;;;37.73;35.53;;;16.30;99.90;;;;;;5013015;28;20450;-71
2021/08/01 06:07:25;;;;;;;35.87;34.03;;;16.20;99.90;;;;;;5013273;28;20477;-73
2021/08/01 06:09:51;;;;;;;36.57;34.57;;;16.20;99.90;;;;;;5013113;28;20937;-71
2021/08/01 06:12:18;;;;;;;36.40;34.50;;;16.40;99.90;;;;;;5013156;28;20446;-73
2021/08/01 06:14:49;;;;;;;36.70;34.63;;;16.50;99.90;;;;;;5013143;28;20493;-70
2021/08/01 06:17:15;;;;;;;37.57;35.37;;;16.60;99.90;;;;;;5013660;28;20481;-71
2021/08/01 06:19:42;;;;;;;37.03;34.60;;;16.70;99.90;;;;;;5013445;28;20477;-72
2021/08/01 06:22:09;;;;;;;35.63;33.63;;;16.70;99.90;;;;;;5013436;28;20489;-70
2021/08/01 06:24:37;;;;;;;37.10;34.90;;;16.80;99.90;;;;;;5012847;28;20941;-71
2021/08/01 06:27:05;;;;;;;35.77;33.97;;;16.90;99.90;;;;;;5012698;28;20450;-70
2021/08/01 06:29:31;;;;;;;36.10;34.30;;;16.80;99.90;;;;;;5012630;28;20508;-72
2021/08/01 06:31:58;;;;;;;35.53;33.63;;;16.90;99.90;;;;;;5012448;28;20477;-74
2021/08/01 06:34:25;;;;;;;36.23;34.23;;;17.00;99.90;;;;;;5012169;28;20493;-72
2021/08/01 06:36:52;;;;;;;35.93;34.03;;;16.90;99.90;;;;;;5012392;28;20453;-72
2021/08/01 06:39:19;;;;;;;35.40;33.57;;;16.80;99.90;;;;;;5012144;28;20450;-72
2021/08/01 06:41:47;;;;;;;35.50;33.63;;;16.80;99.90;;;;;;5012022;28;20512;-71
2021/08/01 06:44:13;;;;;;;36.20;34.00;;;16.70;99.90;;;;;;5011964;28;20453;-73
2021/08/01 06:46:40;;;;;;;34.50;32.70;;;16.70;99.90;;;;;;5011981;28;20512;-71
2021/08/01 06:49:07;;;;;;;35.90;33.87;;;16.80;99.90;;;;;;5012040;28;20454;-72
2021/08/01 06:51:33;;;;;;;32.83;31.23;;;16.90;99.90;;;;;;5011804;28;20445;-72
2021/08/01 06:54:00;;;;;;;32.60;31.00;;;16.80;99.90;;;;;;5011764;28;20481;-73
2021/08/01 06:56:27;;;;;;;32.83;31.10;;;16.90;99.90;;;;;;5011761;28;20462;-74
2021/08/01 06:58:55;;;;;;;32.20;30.50;;;17.10;99.90;;;;;;5011980;28;20483;-71
2021/08/01 07:01:21;;;;;;;30.60;29.10;;;17.20;99.90;;;;;;5011686;28;20457;-73
2021/08/01 07:03:48;;;;;;;29.27;27.63;;;17.20;99.90;;;;;;5011638;28;20708;-73
2021/08/01 07:06:15;;;;;;;26.10;24.70;;;17.30;99.90;;;;;;5011617;28;20761;-73
2021/08/01 07:08:41;;;;;;;25.93;24.63;;;17.40;99.90;;;;;;5011607;28;20824;-72
2021/08/01 07:11:08;;;;;;;23.27;22.23;;;17.70;99.90;;;;;;5011568;28;20957;-74
2021/08/01 07:13:36;;;;;;;21.53;20.50;;;17.70;99.90;;;;;;5011653;28;20445;-72
2021/08/01 07:16:05;;;;;;;21.60;20.50;;;17.70;99.90;;;;;;5011477;28;20445;-72
2021/08/01 07:18:32;;;;;;;20.90;19.90;;;17.90;99.90;;;;;;5011304;28;20470;-72
2021/08/01 07:20:59;;;;;;;21.10;19.70;;;18.10;99.90;;;;;;5011265;28;20477;-72
2021/08/01 07:23:27;;;;;;;18.63;17.73;;;18.20;99.90;;;;;;5011321;28;20453;-71
2021/08/01 07:25:54;;;;;;;17.87;17.07;;;18.40;99.90;;;;;;5011420;28;20862;-71
2021/08/01 07:28:21;;;;;;;17.33;16.43;;;18.40;99.90;;;;;;5011547;28;20523;-71
2021/08/01 07:30:48;;;;;;;16.70;16.00;;;18.40;99.90;;;;;;5011203;28;20825;-71
2021/08/01 07:33:16;;;;;;;18.43;17.10;;;18.50;99.90;;;;;;5011067;28;20454;-71
2021/08/01 07:35:43;;;;;;;17.53;16.43;;;18.50;99.90;;;;;;5011075;28;20547;-71
2021/08/01 07:38:10;;;;;;;18.20;17.20;;;18.50;99.90;;;;;;5011273;28;20910;-73
2021/08/01 07:40:36;;;;;;;18.23;17.33;;;18.50;99.90;;;;;;5011345;28;20485;-72
2021/08/01 07:43:04;;;;;;;20.60;19.40;;;18.40;99.90;;;;;;5011222;28;20458;-72
2021/08/01 07:45:32;;;;;;;18.93;18.03;;;18.20;99.90;;;;;;5010480;28;20517;-72
2021/08/01 07:47:59;;;;;;;19.80;18.57;;;18.00;99.90;;;;;;5010944;28;20457;-71
2021/08/01 07:50:28;;;;;;;20.90;19.80;;;17.90;99.90;;;;;;5010812;28;20452;-71
2021/08/01 07:52:55;;;;;;;21.40;20.10;;;17.70;99.90;;;;;;5010849;28;20504;-71
2021/08/01 07:55:21;;;;;;;20.13;19.13;;;17.50;99.90;;;;;;5010761;28;20500;-70
2021/08/01 07:57:50;;;;;;;21.27;20.07;;;17.50;99.90;;;;;;5010891;28;20454;-70
2021/08/01 08:00:17;;;;;;;21.70;20.60;;;17.50;99.90;;;;;;5010964;28;20796;-71
2021/08/01 08:02:43;;;;;;;30.97;29.47;;;17.50;99.90;;;;;;5010827;28;20458;-70
2021/08/01 08:05:11;;;;;;;36.50;34.60;;;17.40;99.90;;;;;;5010818;28;20450;-71
2021/08/01 08:07:39;;;;;;;39.80;37.43;;;17.30;99.90;;;;;;5011010;28;20454;-72
2021/08/01 08:10:09;;;;;;;38.60;36.50;;;17.10;99.90;;;;;;5010930;28;20515;-72
2021/08/01 08:12:36;;;;;;;39.10;37.10;;;16.90;99.90;;;;;;5010745;28;20949;-72
2021/08/01 08:15:03;;;;;;;41.17;38.73;;;16.90;99.90;;;;;;5010664;28;20493;-72
2021/08/01 08:17:33;;;;;;;38.87;36.67;;;16.80;99.90;;;;;;5010570;28;21011;-72
2021/08/01 08:20:01;;;;;;;39.83;37.53;;;17.00;99.90;;;;;;5010506;28;20506;-72
2021/08/01 08:22:27;;;;;;;39.23;37.23;;;17.00;99.90;;;;;;5010545;28;20509;-72
2021/08/01 08:24:55;;;;;;;40.90;38.40;;;17.10;99.90;;;;;;5010641;28;20938;-72
2021/08/01 08:27:22;;;;;;;40.33;38.17;;;17.10;99.90;;;;;;5010769;28;20511;-72
2021/08/01 08:29:49;;;;;;;40.40;38.23;;;17.20;99.90;;;;;;5010635;28;20803;-73
2021/08/01 08:32:15;;;;;;;40.60;38.43;;;17.10;99.90;;;;;;5010374;28;20480;-72
2021/08/01 08:34:42;;;;;;;39.93;37.73;;;17.20;99.90;;;;;;5010407;28;20492;-73
2021/08/01 08:37:09;;;;;;;38.07;36.00;;;17.20;99.90;;;;;;5000995;28;20470;-73
2021/08/01 08:39:36;;;;;;;35.93;34.10;;;17.30;99.90;;;;;;5007625;28;20458;-73
2021/08/01 08:42:04;;;;;;;34.50;32.70;;;17.30;99.90;;;;;;5010873;28;20449;-73
2021/08/01 08:44:31;;;;;;;34.50;32.80;;;17.30;99.90;;;;;;5010933;28;20453;-73
2021/08/01 08:46:58;;;;;;;33.20;31.40;;;17.60;99.90;;;;;;5010584;28;20449;-73
2021/08/01 08:49:25;;;;;;;32.20;30.13;;;17.80;99.90;;;;;;5010685;28;20449;-73
2021/08/01 08:51:54;;;;;;;27.47;26.13;;;17.90;99.90;;;;;;5010781;28;20461;-73
2021/08/01 08:54:24;;;;;;;27.97;26.47;;;17.90;99.90;;;;;;5010767;28;20445;-73
2021/08/01 08:56:51;;;;;;;26.17;25.00;;;17.90;99.90;;;;;;5014107;28;20516;-72
2021/08/01 08:59:20;;;;;;;25.00;23.80;;;18.10;99.90;;;;;;5014163;28;20450;-73
2021/08/01 09:04:58;;;;;;;25.33;24.03;;;18.20;99.90;;;;;;4973155;28;20533;-73
2021/08/01 09:07:25;;;;;;;25.93;24.43;;;18.40;99.90;;;;;;4994746;28;20883;-72
2021/08/01 09:09:52;;;;;;;26.20;25.00;;;18.40;99.90;;;;;;4999739;28;20906;-73
2021/08/01 09:12:18;;;;;;;23.50;22.40;;;18.60;99.90;;;;;;4994699;28;20462;-73
2021/08/01 09:14:47;;;;;;;23.20;22.10;;;18.90;99.90;;;;;;4994438;28;20486;-73
2021/08/01 09:17:33;;;;;;;21.93;20.73;;;19.10;99.90;;;;;;4994576;28;20458;-73
2021/08/01 09:20:13;;;;;;;20.60;19.60;;;19.20;99.90;;;;;;4994263;28;20471;-73
2021/08/01 09:22:39;;;;;;;18.90;18.00;;;19.00;99.90;;;;;;4994206;28;20490;-73
2021/08/01 09:25:17;;;;;;;18.30;17.40;;;18.90;99.90;;;;;;4994343;28;20447;-73
2021/08/01 09:27:44;;;;;;;19.10;18.20;;;18.90;99.90;;;;;;4994254;28;20447;-73
2021/08/01 09:30:13;;;;;;;19.17;18.27;;;19.00;99.90;;;;;;4994266;28;20795;-72
2021/08/01 09:32:47;;;;;;;18.33;17.43;;;19.20;99.90;;;;;;4994336;28;20870;-71
2021/08/01 09:35:18;;;;;;;18.20;17.20;;;19.00;99.90;;;;;;4997867;28;20485;-71
2021/08/01 09:37:56;;;;;;;17.87;17.07;;;18.80;99.90;;;;;;5013713;28;20452;-72
2021/08/01 09:40:28;;;;;;;17.50;16.70;;;18.90;99.90;;;;;;5013839;28;20958;-72
2021/08/01 09:42:55;;;;;;;17.77;16.97;;;18.90;99.90;;;;;;5013570;28;20879;-71
2021/08/01 09:45:24;;;;;;;19.10;18.00;;;19.00;99.90;;;;;;5013852;28;20450;-72
2021/08/01 09:47:52;;;;;;;16.67;15.90;;;19.10;99.90;;;;;;5013510;28;21011;-71
2021/08/01 09:50:19;;;;;;;18.20;17.30;;;19.00;99.90;;;;;;5013530;28;20461;-70
2021/08/01 09:52:47;;;;;;;16.63;15.80;;;19.00;99.90;;;;;;5013129;28;20541;-70
2021/08/01 09:55:18;;;;;;;17.30;16.60;;;19.00;99.90;;;;;;5013121;28;20481;-68
2021/08/01 09:57:52;;;;;;;15.67;14.97;;;19.00;99.90;;;;;;5013405;28;20489;-69
2021/08/01 10:00:20;;;;;;;15.93;15.23;;;19.20;99.90;;;;;;5013136;28;20479;-69
2021/08/01 10:02:49;;;;;;;16.07;15.37;;;19.30;99.90;;;;;;5013121;28;20551;-69
2021/08/01 10:05:18;;;;;;;15.40;14.70;;;19.60;99.90;;;;;;5013015;28;20449;-69
2021/08/01 10:07:46;;;;;;;17.43;16.63;;;19.60;99.90;;;;;;5012586;28;20523;-69
2021/08/01 10:10:20;;;;;;;17.73;16.97;;;19.60;99.90;;;;;;5012916;28;20454;-69
2021/08/01 10:12:48;;;;;;;19.43;18.50;;;19.60;99.90;;;;;;5013047;28;20464;-70
2021/08/01 10:15:16;;;;;;;19.30;18.60;;;19.30;99.90;;;;;;5012913;28;20557;-68
2021/08/01 10:17:43;;;;;;;19.83;19.03;;;19.20;99.90;;;;;;5012692;28;20980;-70
2021/08/01 10:20:12;;;;;;;19.80;19.00;;;19.00;99.90;;;;;;5013033;28;20819;-71
2021/08/01 10:22:41;;;;;;;19.83;19.03;;;18.90;99.90;;;;;;5013024;28;20485;-70
2021/08/01 10:25:11;;;;;;;19.97;19.03;;;18.80;99.90;;;;;;5013586;28;20450;-70
2021/08/01 10:27:43;;;;;;;19.47;18.67;;;18.70;99.90;;;;;;5015729;28;20514;-70
2021/08/01 10:30:13;;;;;;;20.40;19.40;;;18.70;99.90;;;;;;5014118;28;20859;-69
2021/08/01 10:32:44;;;;;;;18.30;17.50;;;18.80;99.90;;;;;;5012775;28;20458;-71
2021/08/01 10:35:16;;;;;;;18.80;18.00;;;19.00;99.90;;;;;;5010808;28;20485;-71
2021/08/01 10:37:49;;;;;;;18.23;17.33;;;19.60;99.90;;;;;;4993016;28;20811;-71
2021/08/01 10:40:19;;;;;;;16.80;16.00;;;20.20;99.90;;;;;;4993169;28;20462;-71
2021/08/01 10:42:50;;;;;;;15.60;14.80;;;21.00;99.90;;;;;;4992699;28;20550;-70
2021/08/01 10:45:19;;;;;;;15.30;14.50;;;21.30;99.90;;;;;;5000951;28;20587;-71
2021/08/01 10:47:49;;;;;;;16.07;15.40;;;21.90;99.90;;;;;;4996777;28;20955;-71
2021/08/01 10:50:19;;;;;;;15.53;14.93;;;22.50;99.90;;;;;;4992809;28;21069;-70
2021/08/01 10:52:46;;;;;;;15.37;14.77;;;23.20;99.90;;;;;;4992732;28;20443;-71
2021/08/01 10:55:21;;;;;;;16.90;15.90;;;23.40;99.90;;;;;;4992279;28;20490;-71
2021/08/01 10:58:11;;;;;;;14.57;14.00;;;23.80;99.90;;;;;;4992649;28;20543;-71
2021/08/01 11:00:59;;;;;;;15.53;14.73;;;23.90;99.90;;;;;;4992773;28;20536;-72
2021/08/01 11:03:26;;;;;;;14.00;13.50;;;24.30;99.90;;;;;;5011229;28;20446;-71
2021/08/01 11:05:54;;;;;;;14.90;14.30;;;24.60;99.90;;;;;;5012270;28;20450;-72
2021/08/01 11:08:21;;;;;;;14.43;13.83;;;24.80;99.90;;;;;;5011993;28;20476;-71
2021/08/01 11:10:48;;;;;;;14.57;14.07;;;24.70;99.90;;;;;;5012033;28;20450;-70
2021/08/01 11:13:38;;;;;;;14.60;14.00;;;24.40;99.90;;;;;;5011996;28;20461;-71
2021/08/01 11:16:08;;;;;;;13.90;13.40;;;24.40;99.90;;;;;;5012024;28;20490;-70
2021/08/01 11:18:36;;;;;;;14.97;14.07;;;24.50;99.90;;;;;;5010687;28;20474;-72
2021/08/01 11:21:05;;;;;;;13.33;12.63;;;24.70;99.90;;;;;;5011589;28;20482;-71
2021/08/01 11:24:07;;;;;;;13.00;12.50;;;24.80;99.90;;;;;;5012001;28;20453;-69
2021/08/01 11:26:35;;;;;;;13.63;13.10;;;25.10;99.90;;;;;;5012157;28;20480;-69
2021/08/01 11:29:07;;;;;;;14.73;14.13;;;24.80;99.90;;;;;;5011569;28;20446;-69
2021/08/01 11:31:35;;;;;;;13.97;13.17;;;24.70;99.90;;;;;;5011575;28;20485;-69
2021/08/01 11:34:19;;;;;;;13.80;12.93;;;24.60;99.90;;;;;;5011849;28;20453;-69
2021/08/01 11:36:48;;;;;;;13.20;12.70;;;24.50;99.90;;;;;;5011621;28;20481;-68
2021/08/01 11:39:15;;;;;;;13.73;13.20;;;24.10;99.90;;;;;;5011450;28;20958;-69
2021/08/01 11:41:48;;;;;;;13.20;12.60;;;23.90;99.90;;;;;;5011165;28;20476;-69
2021/08/01 11:44:21;;;;;;;14.80;13.73;;;23.90;99.90;;;;;;5010979;28;20456;-69
2021/08/01 11:47:03;;;;;;;14.10;13.40;;;24.10;99.90;;;;;;5010448;28;20457;-69
2021/08/01 11:49:32;;;;;;;13.83;13.10;;;24.60;99.90;;;;;;5010875;28;20449;-69
2021/08/01 11:52:02;;;;;;;14.33;13.40;;;25.10;99.90;;;;;;5011200;28;20454;-70
2021/08/01 11:54:31;;;;;;;14.07;13.47;;;26.10;99.90;;;;;;5010700;28;20460;-69
2021/08/01 11:57:00;;;;;;;13.57;13.07;;;26.40;99.90;;;;;;5010815;28;20547;-69
2021/08/01 11:59:27;;;;;;;13.63;13.13;;;26.40;98.70;;;;;;5008577;28;20449;-69
2021/08/01 12:01:54;;;;;;;13.00;12.40;;;26.40;98.00;;;;;;5007063;28;20942;-69
2021/08/01 12:04:21;;;;;;;13.83;13.23;;;26.00;98.60;;;;;;5011003;28;20485;-69
2021/08/01 12:06:48;;;;;;;13.57;13.07;;;25.40;99.60;;;;;;5011015;28;20468;-69
2021/08/01 12:09:20;;;;;;;14.67;13.93;;;25.20;99.90;;;;;;5010704;28;20488;-69
2021/08/01 12:11:49;;;;;;;14.10;13.50;;;25.20;99.80;;;;;;5010727;28;20459;-68
2021/08/01 12:14:17;;;;;;;14.40;13.80;;;25.60;99.90;;;;;;5011075;28;20533;-69
2021/08/01 12:16:55;;;;;;;14.37;13.50;;;25.40;99.90;;;;;;5010275;28;20552;-69
2021/08/01 12:19:23;;;;;;;14.37;13.47;;;25.30;99.90;;;;;;5010681;28;20481;-69
2021/08/01 12:21:52;;;;;;;15.33;14.43;;;24.80;99.90;;;;;;5010524;28;20481;-68
2021/08/01 12:24:38;;;;;;;14.30;13.50;;;24.50;99.90;;;;;;5010687;28;20462;-68
2021/08/01 12:27:07;;;;;;;15.47;14.67;;;23.50;99.90;;;;;;5010888;28;20446;-68
2021/08/01 12:29:37;;;;;;;15.20;14.40;;;22.50;99.90;;;;;;5010430;28;20796;-68
2021/08/01 12:32:21;;;;;;;15.03;14.33;;;21.80;99.90;;;;;;5014277;28;20449;-68
2021/08/01 12:34:49;;;;;;;15.00;14.30;;;21.70;99.90;;;;;;5014383;28;20812;-68
2021/08/01 12:37:17;;;;;;;14.40;13.83;;;21.40;99.90;;;;;;5014555;28;20496;-69
2021/08/01 12:39:46;;;;;;;14.47;13.87;;;21.30;99.90;;;;;;5014238;28;20457;-69